sensor_id;sensor_type;location;lat;lon;timestamp;P1;durP1;ratioP1;P2;durP2;ratioP2
1507;SDS011;745;48.586;10.032;2022-10-16T00:01:21;2.63;;;2.43;;
1507;SDS011;745;48.586;10.032;2022-10-16T00:05:52;2.73;;;2.53;;
1507;SDS011;745;48.586;10.032;2022-10-16T00:10:23;2.87;;;2.67;;
1507;SDS011;745;48.586;10.032;2022-10-16T00:14:53;3.60;;;3.30;;
1507;SDS011;745;48.586;10.032;2022-10-16T00:19:24;3.57;;;3.27;;
1507;SDS011;745;48.586;10.032;2022-10-16T00:23:58;3.60;;;3.30;;
1507;SDS011;745;48.586;10.032;2022-10-16T00:28:34;3.73;;;3.43;;
1507;SDS011;745;48.586;10.032;2022-10-16T00:33:05;3.00;;;2.80;;
1507;SDS011;745;48.586;10.032;2022-10-16T00:37:35;3.10;;;2.90;;
1507;SDS011;745;48.586;10.032;2022-10-16T00:42:06;2.60;;;2.43;;
1507;SDS011;745;48.586;10.032;2022-10-16T00:46:43;2.80;;;2.60;;
1507;SDS011;745;48.586;10.032;2022-10-16T00:51:13;3.07;;;2.87;;
1507;SDS011;745;48.586;10.032;2022-10-16T00:55:44;2.87;;;2.67;;
1507;SDS011;745;48.586;10.032;2022-10-16T01:00:16;2.73;;;2.53;;
1507;SDS011;745;48.586;10.032;2022-10-16T01:04:50;2.90;;;2.70;;
1507;SDS011;745;48.586;10.032;2022-10-16T01:14:06;3.17;;;2.87;;
1507;SDS011;745;48.586;10.032;2022-10-16T01:18:50;2.47;;;2.27;;
1507;SDS011;745;48.586;10.032;2022-10-16T01:27:54;2.17;;;2.07;;
1507;SDS011;745;48.586;10.032;2022-10-16T01:32:28;2.50;;;2.30;;
1507;SDS011;745;48.586;10.032;2022-10-16T01:37:05;2.30;;;2.10;;
1507;SDS011;745;48.586;10.032;2022-10-16T01:41:44;2.90;;;2.70;;
1507;SDS011;745;48.586;10.032;2022-10-16T01:46:18;2.77;;;2.57;;
1507;SDS011;745;48.586;10.032;2022-10-16T01:50:56;3.50;;;3.00;;
1507;SDS011;745;48.586;10.032;2022-10-16T01:55:33;3.57;;;3.27;;
1507;SDS011;745;48.586;10.032;2022-10-16T02:00:07;3.97;;;3.67;;
1507;SDS011;745;48.586;10.032;2022-10-16T02:04:44;3.73;;;3.43;;
1507;SDS011;745;48.586;10.032;2022-10-16T02:09:17;3.47;;;3.17;;
1507;SDS011;745;48.586;10.032;2022-10-16T02:14:06;3.87;;;3.57;;
1507;SDS011;745;48.586;10.032;2022-10-16T02:18:37;3.67;;;3.37;;
1507;SDS011;745;48.586;10.032;2022-10-16T02:23:09;3.30;;;3.10;;
1507;SDS011;745;48.586;10.032;2022-10-16T02:32:59;3.10;;;2.90;;
1507;SDS011;745;48.586;10.032;2022-10-16T02:37:30;3.07;;;2.87;;
1507;SDS011;745;48.586;10.032;2022-10-16T02:42:01;3.10;;;2.80;;
1507;SDS011;745;48.586;10.032;2022-10-16T02:46:31;2.70;;;2.50;;
1507;SDS011;745;48.586;10.032;2022-10-16T02:51:03;2.37;;;2.27;;
1507;SDS011;745;48.586;10.032;2022-10-16T02:55:33;2.90;;;2.70;;
1507;SDS011;745;48.586;10.032;2022-10-16T03:00:04;2.80;;;2.60;;
1507;SDS011;745;48.586;10.032;2022-10-16T03:04:35;3.17;;;2.90;;
1507;SDS011;745;48.586;10.032;2022-10-16T03:09:05;3.00;;;2.80;;
1507;SDS011;745;48.586;10.032;2022-10-16T03:13:36;3.23;;;3.00;;
1507;SDS011;745;48.586;10.032;2022-10-16T03:18:06;3.80;;;3.50;;
1507;SDS011;745;48.586;10.032;2022-10-16T03:22:37;4.10;;;3.80;;
1507;SDS011;745;48.586;10.032;2022-10-16T03:27:07;4.20;;;3.90;;
1507;SDS011;745;48.586;10.032;2022-10-16T03:31:38;3.83;;;3.53;;
1507;SDS011;745;48.586;10.032;2022-10-16T03:36:09;4.03;;;3.73;;
1507;SDS011;745;48.586;10.032;2022-10-16T03:40:39;5.07;;;4.57;;
1507;SDS011;745;48.586;10.032;2022-10-16T03:45:10;4.90;;;4.50;;
1507;SDS011;745;48.586;10.032;2022-10-16T03:49:41;4.50;;;4.20;;
1507;SDS011;745;48.586;10.032;2022-10-16T03:54:12;4.83;;;4.43;;
1507;SDS011;745;48.586;10.032;2022-10-16T03:58:42;5.10;;;4.70;;
1507;SDS011;745;48.586;10.032;2022-10-16T04:03:13;5.13;;;4.63;;
1507;SDS011;745;48.586;10.032;2022-10-16T04:07:43;4.80;;;4.40;;
1507;SDS011;745;48.586;10.032;2022-10-16T04:12:15;5.47;;;4.97;;
1507;SDS011;745;48.586;10.032;2022-10-16T04:16:45;5.53;;;5.13;;
1507;SDS011;745;48.586;10.032;2022-10-16T04:21:16;5.13;;;4.63;;
1507;SDS011;745;48.586;10.032;2022-10-16T04:25:46;5.57;;;5.07;;
1507;SDS011;745;48.586;10.032;2022-10-16T04:30:16;5.57;;;5.07;;
1507;SDS011;745;48.586;10.032;2022-10-16T04:34:47;5.70;;;5.30;;
1507;SDS011;745;48.586;10.032;2022-10-16T04:39:17;5.10;;;4.70;;
1507;SDS011;745;48.586;10.032;2022-10-16T04:43:48;5.17;;;4.77;;
1507;SDS011;745;48.586;10.032;2022-10-16T04:48:18;5.90;;;5.40;;
1507;SDS011;745;48.586;10.032;2022-10-16T04:52:49;6.30;;;5.80;;
1507;SDS011;745;48.586;10.032;2022-10-16T04:57:19;5.60;;;5.10;;
1507;SDS011;745;48.586;10.032;2022-10-16T05:01:50;5.23;;;4.83;;
1507;SDS011;745;48.586;10.032;2022-10-16T05:06:21;5.10;;;4.70;;
1507;SDS011;745;48.586;10.032;2022-10-16T05:10:51;4.70;;;4.30;;
1507;SDS011;745;48.586;10.032;2022-10-16T05:15:22;4.83;;;4.43;;
1507;SDS011;745;48.586;10.032;2022-10-16T05:19:54;4.80;;;4.40;;
1507;SDS011;745;48.586;10.032;2022-10-16T05:24:25;5.10;;;4.70;;
1507;SDS011;745;48.586;10.032;2022-10-16T05:28:56;5.93;;;5.43;;
1507;SDS011;745;48.586;10.032;2022-10-16T05:33:27;5.60;;;5.10;;
1507;SDS011;745;48.586;10.032;2022-10-16T05:37:58;5.57;;;5.07;;
1507;SDS011;745;48.586;10.032;2022-10-16T05:42:28;4.80;;;4.40;;
1507;SDS011;745;48.586;10.032;2022-10-16T05:46:59;4.53;;;4.13;;
1507;SDS011;745;48.586;10.032;2022-10-16T05:51:29;5.73;;;5.33;;
1507;SDS011;745;48.586;10.032;2022-10-16T05:56:00;5.13;;;4.67;;
1507;SDS011;745;48.586;10.032;2022-10-16T06:00:31;5.30;;;4.80;;
1507;SDS011;745;48.586;10.032;2022-10-16T06:05:01;4.73;;;4.37;;
1507;SDS011;745;48.586;10.032;2022-10-16T06:09:32;4.53;;;4.13;;
1507;SDS011;745;48.586;10.032;2022-10-16T06:14:02;4.40;;;4.00;;
1507;SDS011;745;48.586;10.032;2022-10-16T06:18:36;4.00;;;3.70;;
1507;SDS011;745;48.586;10.032;2022-10-16T06:23:07;3.30;;;3.10;;
1507;SDS011;745;48.586;10.032;2022-10-16T06:27:39;3.40;;;3.10;;
1507;SDS011;745;48.586;10.032;2022-10-16T06:32:10;3.93;;;3.63;;
1507;SDS011;745;48.586;10.032;2022-10-16T06:36:41;3.50;;;3.20;;
1507;SDS011;745;48.586;10.032;2022-10-16T06:41:12;3.23;;;3.03;;
1507;SDS011;745;48.586;10.032;2022-10-16T06:45:49;4.00;;;3.70;;
1507;SDS011;745;48.586;10.032;2022-10-16T06:50:24;4.20;;;3.90;;
1507;SDS011;745;48.586;10.032;2022-10-16T06:54:54;3.33;;;3.03;;
1507;SDS011;745;48.586;10.032;2022-10-16T06:59:24;4.30;;;3.07;;
1507;SDS011;745;48.586;10.032;2022-10-16T07:03:55;3.30;;;3.10;;
1507;SDS011;745;48.586;10.032;2022-10-16T07:08:26;3.83;;;3.53;;
1507;SDS011;745;48.586;10.032;2022-10-16T07:12:57;5.47;;;5.00;;
1507;SDS011;745;48.586;10.032;2022-10-16T07:17:27;5.67;;;5.17;;
1507;SDS011;745;48.586;10.032;2022-10-16T07:22:01;5.63;;;4.90;;
1507;SDS011;745;48.586;10.032;2022-10-16T07:26:32;5.03;;;4.53;;
1507;SDS011;745;48.586;10.032;2022-10-16T07:31:05;4.03;;;3.70;;
1507;SDS011;745;48.586;10.032;2022-10-16T07:35:53;4.63;;;4.23;;
1507;SDS011;745;48.586;10.032;2022-10-16T07:40:24;3.93;;;3.63;;
1507;SDS011;745;48.586;10.032;2022-10-16T07:44:57;3.80;;;3.50;;
1507;SDS011;745;48.586;10.032;2022-10-16T07:49:27;3.80;;;3.50;;
1507;SDS011;745;48.586;10.032;2022-10-16T07:53:58;4.20;;;3.90;;
1507;SDS011;745;48.586;10.032;2022-10-16T07:58:28;4.73;;;4.33;;
1507;SDS011;745;48.586;10.032;2022-10-16T08:02:59;4.90;;;4.50;;
1507;SDS011;745;48.586;10.032;2022-10-16T08:07:30;4.60;;;4.20;;
1507;SDS011;745;48.586;10.032;2022-10-16T08:12:01;5.37;;;4.87;;
1507;SDS011;745;48.586;10.032;2022-10-16T08:16:32;5.40;;;4.90;;
1507;SDS011;745;48.586;10.032;2022-10-16T08:21:03;6.13;;;5.53;;
1507;SDS011;745;48.586;10.032;2022-10-16T08:25:35;5.37;;;4.90;;
1507;SDS011;745;48.586;10.032;2022-10-16T08:30:07;5.30;;;4.90;;
1507;SDS011;745;48.586;10.032;2022-10-16T08:34:38;6.30;;;4.33;;
1507;SDS011;745;48.586;10.032;2022-10-16T08:39:08;4.20;;;3.90;;
1507;SDS011;745;48.586;10.032;2022-10-16T08:48:49;4.60;;;4.20;;
1507;SDS011;745;48.586;10.032;2022-10-16T08:53:23;4.03;;;3.63;;
1507;SDS011;745;48.586;10.032;2022-10-16T08:57:56;4.07;;;3.77;;
1507;SDS011;745;48.586;10.032;2022-10-16T09:02:49;4.50;;;4.10;;
1507;SDS011;745;48.586;10.032;2022-10-16T09:12:00;4.40;;;4.10;;
1507;SDS011;745;48.586;10.032;2022-10-16T09:16:37;3.80;;;3.50;;
1507;SDS011;745;48.586;10.032;2022-10-16T09:21:16;4.00;;;3.70;;
1507;SDS011;745;48.586;10.032;2022-10-16T09:25:50;3.83;;;3.33;;
1507;SDS011;745;48.586;10.032;2022-10-16T09:30:21;3.80;;;3.50;;
1507;SDS011;745;48.586;10.032;2022-10-16T09:35:01;3.57;;;3.27;;
1507;SDS011;745;48.586;10.032;2022-10-16T09:39:43;5.20;;;3.70;;
1507;SDS011;745;48.586;10.032;2022-10-16T09:49:03;4.13;;;3.77;;
1507;SDS011;745;48.586;10.032;2022-10-16T09:53:53;3.93;;;3.27;;
1507;SDS011;745;48.586;10.032;2022-10-16T09:58:25;4.10;;;3.80;;
1507;SDS011;745;48.586;10.032;2022-10-16T10:02:56;3.47;;;3.17;;
1507;SDS011;745;48.586;10.032;2022-10-16T10:07:38;4.30;;;3.57;;
1507;SDS011;745;48.586;10.032;2022-10-16T10:12:20;3.43;;;3.23;;
1507;SDS011;745;48.586;10.032;2022-10-16T10:17:02;2.90;;;2.70;;
1507;SDS011;745;48.586;10.032;2022-10-16T10:21:41;3.50;;;2.83;;
1507;SDS011;745;48.586;10.032;2022-10-16T10:26:14;3.97;;;2.40;;
1507;SDS011;745;48.586;10.032;2022-10-16T10:30:59;3.10;;;2.87;;
1507;SDS011;745;48.586;10.032;2022-10-16T10:50:05;3.13;;;2.90;;
1507;SDS011;745;48.586;10.032;2022-10-16T10:54:44;3.73;;;2.80;;
1507;SDS011;745;48.586;10.032;2022-10-16T10:59:32;2.90;;;2.70;;
1507;SDS011;745;48.586;10.032;2022-10-16T11:08:41;3.73;;;3.00;;
1507;SDS011;745;48.586;10.032;2022-10-16T11:18:21;4.47;;;3.73;;
1507;SDS011;745;48.586;10.032;2022-10-16T11:23:00;4.00;;;3.60;;
1507;SDS011;745;48.586;10.032;2022-10-16T11:32:23;3.63;;;3.33;;
1507;SDS011;745;48.586;10.032;2022-10-16T11:37:01;5.80;;;3.80;;
1507;SDS011;745;48.586;10.032;2022-10-16T11:46:31;3.53;;;3.23;;
1507;SDS011;745;48.586;10.032;2022-10-16T11:51:06;3.83;;;3.20;;
1507;SDS011;745;48.586;10.032;2022-10-16T11:55:45;3.17;;;2.60;;
1507;SDS011;745;48.586;10.032;2022-10-16T12:00:19;3.60;;;2.97;;
1507;SDS011;745;48.586;10.032;2022-10-16T12:05:02;2.87;;;2.63;;
1507;SDS011;745;48.586;10.032;2022-10-16T12:09:38;3.60;;;3.20;;
1507;SDS011;745;48.586;10.032;2022-10-16T12:18:42;2.60;;;2.40;;
1507;SDS011;745;48.586;10.032;2022-10-16T12:23:19;2.67;;;2.30;;
1507;SDS011;745;48.586;10.032;2022-10-16T12:27:56;2.43;;;2.20;;
1507;SDS011;745;48.586;10.032;2022-10-16T12:32:35;2.90;;;2.70;;
1507;SDS011;745;48.586;10.032;2022-10-16T12:37:24;2.10;;;2.00;;
1507;SDS011;745;48.586;10.032;2022-10-16T12:42:05;2.47;;;2.27;;
1507;SDS011;745;48.586;10.032;2022-10-16T12:46:56;1.97;;;1.77;;
1507;SDS011;745;48.586;10.032;2022-10-16T12:56:01;2.17;;;2.00;;
1507;SDS011;745;48.586;10.032;2022-10-16T13:00:50;4.30;;;2.33;;
1507;SDS011;745;48.586;10.032;2022-10-16T13:05:34;2.00;;;1.90;;
1507;SDS011;745;48.586;10.032;2022-10-16T13:14:51;2.13;;;1.97;;
1507;SDS011;745;48.586;10.032;2022-10-16T13:29:14;2.53;;;2.33;;
1507;SDS011;745;48.586;10.032;2022-10-16T13:33:49;1.80;;;1.70;;
1507;SDS011;745;48.586;10.032;2022-10-16T13:38:25;2.13;;;1.93;;
1507;SDS011;745;48.586;10.032;2022-10-16T13:42:59;2.20;;;2.00;;
1507;SDS011;745;48.586;10.032;2022-10-16T13:47:29;1.90;;;1.80;;
1507;SDS011;745;48.586;10.032;2022-10-16T13:52:00;1.80;;;1.70;;
1507;SDS011;745;48.586;10.032;2022-10-16T13:56:32;2.17;;;1.97;;
1507;SDS011;745;48.586;10.032;2022-10-16T14:01:03;3.27;;;2.47;;
1507;SDS011;745;48.586;10.032;2022-10-16T14:05:42;2.40;;;2.20;;
1507;SDS011;745;48.586;10.032;2022-10-16T14:10:23;2.20;;;2.00;;
1507;SDS011;745;48.586;10.032;2022-10-16T14:14:55;4.63;;;3.20;;
1507;SDS011;745;48.586;10.032;2022-10-16T14:19:28;3.30;;;2.70;;
1507;SDS011;745;48.586;10.032;2022-10-16T14:23:59;3.40;;;2.53;;
1507;SDS011;745;48.586;10.032;2022-10-16T14:28:42;3.00;;;2.80;;
1507;SDS011;745;48.586;10.032;2022-10-16T14:33:22;2.90;;;2.70;;
1507;SDS011;745;48.586;10.032;2022-10-16T14:37:54;2.47;;;2.27;;
1507;SDS011;745;48.586;10.032;2022-10-16T14:42:25;2.37;;;2.17;;
1507;SDS011;745;48.586;10.032;2022-10-16T14:46:56;1.70;;;1.60;;
1507;SDS011;745;48.586;10.032;2022-10-16T14:51:27;2.50;;;2.30;;
1507;SDS011;745;48.586;10.032;2022-10-16T14:55:58;2.53;;;2.13;;
1507;SDS011;745;48.586;10.032;2022-10-16T15:00:46;2.20;;;2.03;;
1507;SDS011;745;48.586;10.032;2022-10-16T15:05:18;2.27;;;2.07;;
1507;SDS011;745;48.586;10.032;2022-10-16T15:09:53;1.73;;;1.63;;
1507;SDS011;745;48.586;10.032;2022-10-16T15:14:24;1.80;;;1.70;;
1507;SDS011;745;48.586;10.032;2022-10-16T15:18:55;2.07;;;1.87;;
1507;SDS011;745;48.586;10.032;2022-10-16T15:23:25;1.70;;;1.60;;
1507;SDS011;745;48.586;10.032;2022-10-16T15:27:56;1.80;;;1.70;;
1507;SDS011;745;48.586;10.032;2022-10-16T15:32:26;2.27;;;1.97;;
1507;SDS011;745;48.586;10.032;2022-10-16T15:36:57;1.83;;;1.73;;
1507;SDS011;745;48.586;10.032;2022-10-16T15:41:29;1.63;;;1.53;;
1507;SDS011;745;48.586;10.032;2022-10-16T15:46:04;1.60;;;1.50;;
1507;SDS011;745;48.586;10.032;2022-10-16T15:50:36;1.70;;;1.60;;
1507;SDS011;745;48.586;10.032;2022-10-16T15:55:08;1.80;;;1.70;;
1507;SDS011;745;48.586;10.032;2022-10-16T15:59:39;2.20;;;2.00;;
1507;SDS011;745;48.586;10.032;2022-10-16T16:04:10;1.93;;;1.80;;
1507;SDS011;745;48.586;10.032;2022-10-16T16:08:41;4.67;;;4.07;;
1507;SDS011;745;48.586;10.032;2022-10-16T16:13:11;4.53;;;4.07;;
1507;SDS011;745;48.586;10.032;2022-10-16T16:17:42;4.20;;;2.60;;
1507;SDS011;745;48.586;10.032;2022-10-16T16:22:14;3.07;;;2.77;;
1507;SDS011;745;48.586;10.032;2022-10-16T16:26:45;3.20;;;2.90;;
1507;SDS011;745;48.586;10.032;2022-10-16T16:31:15;3.07;;;2.80;;
1507;SDS011;745;48.586;10.032;2022-10-16T16:35:46;2.53;;;2.33;;
1507;SDS011;745;48.586;10.032;2022-10-16T16:40:17;2.43;;;2.23;;
1507;SDS011;745;48.586;10.032;2022-10-16T16:44:47;2.10;;;1.93;;
1507;SDS011;745;48.586;10.032;2022-10-16T16:49:18;2.33;;;2.13;;
1507;SDS011;745;48.586;10.032;2022-10-16T16:53:50;1.87;;;1.77;;
1507;SDS011;745;48.586;10.032;2022-10-16T16:58:22;2.20;;;2.00;;
1507;SDS011;745;48.586;10.032;2022-10-16T17:02:52;1.80;;;1.70;;
1507;SDS011;745;48.586;10.032;2022-10-16T17:07:23;1.83;;;1.73;;
1507;SDS011;745;48.586;10.032;2022-10-16T17:11:55;2.30;;;2.10;;
1507;SDS011;745;48.586;10.032;2022-10-16T17:16:30;2.00;;;1.90;;
1507;SDS011;745;48.586;10.032;2022-10-16T17:21:03;2.50;;;2.30;;
1507;SDS011;745;48.586;10.032;2022-10-16T17:25:36;2.70;;;2.50;;
1507;SDS011;745;48.586;10.032;2022-10-16T17:30:08;2.43;;;2.23;;
1507;SDS011;745;48.586;10.032;2022-10-16T17:34:39;2.50;;;2.30;;
1507;SDS011;745;48.586;10.032;2022-10-16T17:39:11;3.00;;;2.67;;
1507;SDS011;745;48.586;10.032;2022-10-16T17:43:42;2.53;;;2.33;;
1507;SDS011;745;48.586;10.032;2022-10-16T17:48:13;2.80;;;2.60;;
1507;SDS011;745;48.586;10.032;2022-10-16T17:52:44;2.27;;;2.07;;
1507;SDS011;745;48.586;10.032;2022-10-16T17:57:15;2.07;;;1.97;;
1507;SDS011;745;48.586;10.032;2022-10-16T18:01:45;1.90;;;1.80;;
1507;SDS011;745;48.586;10.032;2022-10-16T18:06:16;2.40;;;2.20;;
1507;SDS011;745;48.586;10.032;2022-10-16T18:10:47;2.13;;;2.00;;
1507;SDS011;745;48.586;10.032;2022-10-16T18:15:19;2.10;;;2.00;;
1507;SDS011;745;48.586;10.032;2022-10-16T18:19:49;2.10;;;2.00;;
1507;SDS011;745;48.586;10.032;2022-10-16T18:24:20;2.20;;;2.07;;
1507;SDS011;745;48.586;10.032;2022-10-16T18:28:54;5.03;;;3.70;;
1507;SDS011;745;48.586;10.032;2022-10-16T18:33:26;6.50;;;4.80;;
1507;SDS011;745;48.586;10.032;2022-10-16T18:38:01;8.73;;;4.90;;
1507;SDS011;745;48.586;10.032;2022-10-16T18:42:36;5.53;;;4.07;;
1507;SDS011;745;48.586;10.032;2022-10-16T18:47:07;4.03;;;3.60;;
1507;SDS011;745;48.586;10.032;2022-10-16T18:51:39;4.00;;;3.67;;
1507;SDS011;745;48.586;10.032;2022-10-16T18:56:11;2.80;;;2.60;;
1507;SDS011;745;48.586;10.032;2022-10-16T19:00:45;3.33;;;3.03;;
1507;SDS011;745;48.586;10.032;2022-10-16T19:05:16;3.33;;;3.03;;
1507;SDS011;745;48.586;10.032;2022-10-16T19:09:46;3.80;;;3.43;;
1507;SDS011;745;48.586;10.032;2022-10-16T19:14:17;3.40;;;3.10;;
1507;SDS011;745;48.586;10.032;2022-10-16T19:18:50;3.50;;;3.20;;
1507;SDS011;745;48.586;10.032;2022-10-16T19:23:22;4.23;;;3.63;;
1507;SDS011;745;48.586;10.032;2022-10-16T19:27:52;4.43;;;3.90;;
1507;SDS011;745;48.586;10.032;2022-10-16T19:32:23;3.97;;;3.57;;
1507;SDS011;745;48.586;10.032;2022-10-16T19:36:54;3.93;;;3.50;;
1507;SDS011;745;48.586;10.032;2022-10-16T19:41:26;4.80;;;3.73;;
1507;SDS011;745;48.586;10.032;2022-10-16T19:46:01;3.70;;;3.40;;
1507;SDS011;745;48.586;10.032;2022-10-16T19:50:32;3.80;;;3.50;;
1507;SDS011;745;48.586;10.032;2022-10-16T19:55:04;2.97;;;2.77;;
1507;SDS011;745;48.586;10.032;2022-10-16T19:59:35;3.07;;;2.87;;
1507;SDS011;745;48.586;10.032;2022-10-16T20:04:05;2.60;;;2.40;;
1507;SDS011;745;48.586;10.032;2022-10-16T20:08:36;2.17;;;2.07;;
1507;SDS011;745;48.586;10.032;2022-10-16T20:13:08;2.13;;;2.03;;
1507;SDS011;745;48.586;10.032;2022-10-16T20:17:38;1.83;;;1.73;;
1507;SDS011;745;48.586;10.032;2022-10-16T20:22:10;2.33;;;2.13;;
1507;SDS011;745;48.586;10.032;2022-10-16T20:26:41;1.90;;;1.80;;
1507;SDS011;745;48.586;10.032;2022-10-16T20:31:16;1.60;;;1.50;;
1507;SDS011;745;48.586;10.032;2022-10-16T20:35:51;1.90;;;1.80;;
1507;SDS011;745;48.586;10.032;2022-10-16T20:40:21;2.00;;;1.90;;
1507;SDS011;745;48.586;10.032;2022-10-16T20:44:52;2.30;;;2.10;;
1507;SDS011;745;48.586;10.032;2022-10-16T20:49:22;2.53;;;2.33;;
1507;SDS011;745;48.586;10.032;2022-10-16T20:53:57;2.77;;;2.57;;
1507;SDS011;745;48.586;10.032;2022-10-16T20:58:29;2.40;;;2.20;;
1507;SDS011;745;48.586;10.032;2022-10-16T21:02:59;2.60;;;2.40;;
1507;SDS011;745;48.586;10.032;2022-10-16T21:07:30;2.30;;;2.20;;
1507;SDS011;745;48.586;10.032;2022-10-16T21:12:00;2.03;;;1.90;;
1507;SDS011;745;48.586;10.032;2022-10-16T21:16:31;2.50;;;2.30;;
1507;SDS011;745;48.586;10.032;2022-10-16T21:21:01;2.40;;;2.20;;
1507;SDS011;745;48.586;10.032;2022-10-16T21:25:32;2.50;;;2.30;;
1507;SDS011;745;48.586;10.032;2022-10-16T21:30:03;3.77;;;3.47;;
1507;SDS011;745;48.586;10.032;2022-10-16T21:34:38;3.40;;;3.10;;
1507;SDS011;745;48.586;10.032;2022-10-16T21:39:09;4.17;;;3.40;;
1507;SDS011;745;48.586;10.032;2022-10-16T21:43:42;3.73;;;3.30;;
1507;SDS011;745;48.586;10.032;2022-10-16T21:48:13;3.20;;;3.00;;
1507;SDS011;745;48.586;10.032;2022-10-16T21:52:44;3.33;;;3.03;;
1507;SDS011;745;48.586;10.032;2022-10-16T21:57:15;2.90;;;2.60;;
1507;SDS011;745;48.586;10.032;2022-10-16T22:01:45;2.97;;;2.73;;
1507;SDS011;745;48.586;10.032;2022-10-16T22:06:17;3.20;;;2.90;;
1507;SDS011;745;48.586;10.032;2022-10-16T22:10:48;3.10;;;2.90;;
1507;SDS011;745;48.586;10.032;2022-10-16T22:15:19;2.93;;;2.73;;
1507;SDS011;745;48.586;10.032;2022-10-16T22:19:49;2.90;;;2.70;;
1507;SDS011;745;48.586;10.032;2022-10-16T22:24:19;2.90;;;2.70;;
1507;SDS011;745;48.586;10.032;2022-10-16T22:28:50;2.70;;;2.50;;
1507;SDS011;745;48.586;10.032;2022-10-16T22:33:21;2.60;;;2.40;;
1507;SDS011;745;48.586;10.032;2022-10-16T22:37:51;2.40;;;2.20;;
1507;SDS011;745;48.586;10.032;2022-10-16T22:42:22;2.90;;;2.70;;
1507;SDS011;745;48.586;10.032;2022-10-16T22:46:52;2.87;;;2.57;;
1507;SDS011;745;48.586;10.032;2022-10-16T22:51:23;2.67;;;2.47;;
1507;SDS011;745;48.586;10.032;2022-10-16T22:55:55;2.97;;;2.77;;
1507;SDS011;745;48.586;10.032;2022-10-16T23:00:26;2.70;;;2.40;;
1507;SDS011;745;48.586;10.032;2022-10-16T23:04:56;3.20;;;2.90;;
1507;SDS011;745;48.586;10.032;2022-10-16T23:09:27;2.53;;;2.33;;
1507;SDS011;745;48.586;10.032;2022-10-16T23:13:57;2.70;;;2.27;;
1507;SDS011;745;48.586;10.032;2022-10-16T23:18:28;2.50;;;2.30;;
1507;SDS011;745;48.586;10.032;2022-10-16T23:22:58;2.37;;;2.17;;
1507;SDS011;745;48.586;10.032;2022-10-16T23:27:29;2.23;;;2.03;;
1507;SDS011;745;48.586;10.032;2022-10-16T23:31:59;2.03;;;1.83;;
1507;SDS011;745;48.586;10.032;2022-10-16T23:36:30;3.30;;;2.37;;
1507;SDS011;745;48.586;10.032;2022-10-16T23:41:01;2.07;;;1.93;;
1507;SDS011;745;48.586;10.032;2022-10-16T23:45:31;2.30;;;2.10;;
1507;SDS011;745;48.586;10.032;2022-10-16T23:50:02;2.60;;;2.40;;
1507;SDS011;745;48.586;10.032;2022-10-16T23:54:32;2.43;;;2.23;;
1507;SDS011;745;48.586;10.032;2022-10-16T23:59:03;2.40;;;2.20;;
